createdAt,value
2017-05-21T00:00:23.978Z,0
2017-05-21T00:01:23.981Z,0
2017-05-21T00:02:23.977Z,0
2017-05-21T00:03:23.955Z,0
2017-05-21T00:04:24.008Z,0
2017-05-21T00:05:23.929Z,0
2017-05-21T00:06:23.924Z,0
2017-05-21T00:07:23.918Z,0
2017-05-21T00:08:23.617Z,0
2017-05-21T00:09:23.003Z,0
2017-05-21T00:10:23.622Z,0
2017-05-21T00:11:23.289Z,0
2017-05-21T00:12:23.273Z,0
2017-05-21T00:13:23.286Z,0
2017-05-21T00:14:23.300Z,0
2017-05-21T00:15:23.568Z,0
2017-05-21T00:16:23.262Z,0
2017-05-21T00:17:23.262Z,0
2017-05-21T00:18:23.247Z,0
2017-05-21T00:19:23.255Z,0
2017-05-21T00:20:23.839Z,0
2017-05-21T00:21:23.828Z,0
2017-05-21T00:22:23.530Z,0
2017-05-21T00:23:23.519Z,0
2017-05-21T00:24:23.501Z,0
2017-05-21T00:25:23.189Z,0
2017-05-21T00:26:23.794Z,0
2017-05-21T00:27:23.485Z,0
2017-05-21T00:28:23.492Z,0
2017-05-21T00:29:23.470Z,0
2017-05-21T00:30:23.455Z,0
2017-05-21T00:31:23.468Z,0
2017-05-21T00:32:23.459Z,0
2017-05-21T00:33:23.450Z,0
2017-05-21T00:34:23.753Z,0
2017-05-21T00:35:23.436Z,0
2017-05-21T00:36:23.428Z,0
2017-05-21T00:37:23.430Z,0
2017-05-21T00:38:23.397Z,0
2017-05-21T00:39:23.414Z,0
2017-05-21T00:40:23.695Z,0
2017-05-21T00:41:23.399Z,0
2017-05-21T00:42:23.389Z,0
2017-05-21T00:43:23.383Z,0
2017-05-21T00:44:23.684Z,0
2017-05-21T00:45:23.674Z,0
2017-05-21T00:46:23.671Z,0
2017-05-21T00:47:23.663Z,0
2017-05-21T00:48:23.667Z,0
2017-05-21T00:49:23.653Z,0
2017-05-21T00:50:23.649Z,0
2017-05-21T00:51:23.630Z,0
2017-05-21T00:52:23.620Z,0
2017-05-21T00:53:23.311Z,0
2017-05-21T00:54:23.604Z,0
2017-05-21T00:55:23.313Z,0
2017-05-21T00:56:23.601Z,0
2017-05-21T00:57:23.291Z,0
2017-05-21T00:58:23.275Z,0
2017-05-21T00:59:22.961Z,0
2017-05-21T01:00:23.562Z,0
2017-05-21T01:01:23.554Z,0
2017-05-21T01:02:23.555Z,0
2017-05-21T01:03:23.550Z,0
2017-05-21T01:04:22.945Z,0
2017-05-21T01:05:23.244Z,0
2017-05-21T01:06:23.523Z,0
2017-05-21T01:07:23.536Z,0
2017-05-21T01:08:23.221Z,0
2017-05-21T01:09:23.533Z,0
2017-05-21T01:10:23.503Z,0
2017-05-21T01:11:23.489Z,0
2017-05-21T01:12:22.888Z,0
2017-05-21T01:13:23.182Z,0
2017-05-21T01:14:23.197Z,0
2017-05-21T01:15:23.163Z,0
2017-05-21T01:16:22.557Z,0
2017-05-21T01:17:23.153Z,0
2017-05-21T01:18:23.160Z,0
2017-05-21T01:19:22.530Z,0
2017-05-21T01:20:23.434Z,0
2017-05-21T01:21:23.133Z,0
2017-05-21T01:22:23.116Z,0
2017-05-21T01:23:23.102Z,0
2017-05-21T01:24:23.780Z,0
2017-05-21T01:25:23.085Z,0
2017-05-21T01:26:23.076Z,0
2017-05-21T01:27:23.071Z,0
2017-05-21T01:28:23.091Z,0
2017-05-21T01:29:23.072Z,0
2017-05-21T01:30:23.050Z,0
2017-05-21T01:31:23.369Z,0
2017-05-21T01:32:23.351Z,0
2017-05-21T01:33:23.349Z,0
2017-05-21T01:34:23.040Z,0
2017-05-21T01:35:23.035Z,0
2017-05-21T01:36:23.021Z,0
2017-05-21T01:37:23.326Z,0
2017-05-21T01:38:23.321Z,0
2017-05-21T01:39:23.307Z,0
2017-05-21T01:40:23.287Z,0
2017-05-21T01:41:22.746Z,0
2017-05-21T01:42:22.974Z,0
2017-05-21T01:43:22.958Z,0
2017-05-21T01:44:22.982Z,0
2017-05-21T01:45:23.252Z,0
2017-05-21T01:46:22.958Z,0
2017-05-21T01:47:23.246Z,0
2017-05-21T01:48:22.940Z,0
2017-05-21T01:49:23.236Z,0
2017-05-21T01:50:22.621Z,0
2017-05-21T01:51:22.609Z,0
2017-05-21T01:52:23.226Z,0
2017-05-21T01:53:23.212Z,0
2017-05-21T01:54:22.577Z,0
2017-05-21T01:55:22.889Z,0
2017-05-21T01:56:23.209Z,0
2017-05-21T01:57:22.563Z,0
2017-05-21T01:58:22.867Z,0
2017-05-21T01:59:22.861Z,0
2017-05-21T02:00:22.544Z,0
2017-05-21T02:01:22.889Z,0
2017-05-21T02:02:22.854Z,0
2017-05-21T02:03:22.224Z,0
2017-05-21T02:04:22.821Z,0
2017-05-21T02:05:22.209Z,0
2017-05-21T02:06:23.111Z,0
2017-05-21T02:07:22.798Z,0
2017-05-21T02:08:22.794Z,0
2017-05-21T02:09:22.798Z,0
2017-05-21T02:10:22.464Z,0
2017-05-21T02:11:22.761Z,0
2017-05-21T02:12:22.760Z,0
2017-05-21T02:13:22.769Z,0
2017-05-21T02:14:22.457Z,0
2017-05-21T02:15:22.752Z,0
2017-05-21T02:16:22.733Z,0
2017-05-21T02:17:22.711Z,0
2017-05-21T02:18:22.724Z,0
2017-05-21T02:19:22.723Z,0
2017-05-21T02:20:22.713Z,0
2017-05-21T02:21:22.696Z,0
2017-05-21T02:22:22.390Z,0
2017-05-21T02:23:22.697Z,0
2017-05-21T02:24:22.990Z,0
2017-05-21T02:25:22.377Z,0
2017-05-21T02:26:22.659Z,0
2017-05-21T02:27:22.984Z,0
2017-05-21T02:28:22.952Z,0
2017-05-21T02:29:22.658Z,0
2017-05-21T02:30:22.335Z,0
2017-05-21T02:31:22.636Z,0
2017-05-21T02:32:22.028Z,0
2017-05-21T02:33:22.318Z,0
2017-05-21T02:34:22.306Z,0
2017-05-21T02:35:22.296Z,0
2017-05-21T02:36:21.980Z,0
2017-05-21T02:37:22.869Z,0
2017-05-21T02:38:22.272Z,0
2017-05-21T02:39:22.269Z,0
2017-05-21T02:40:22.256Z,0
2017-05-21T02:41:22.251Z,0
2017-05-21T02:42:22.239Z,0
2017-05-21T02:43:22.238Z,0
2017-05-21T02:44:22.540Z,0
2017-05-21T02:45:22.228Z,0
2017-05-21T02:46:22.224Z,0
2017-05-21T02:47:22.214Z,0
2017-05-21T02:48:22.191Z,0
2017-05-21T02:49:22.493Z,0
2017-05-21T02:50:22.793Z,5
2017-05-21T02:51:22.173Z,5
2017-05-21T02:52:22.180Z,5
2017-05-21T02:53:22.157Z,5
2017-05-21T02:54:22.775Z,5
2017-05-21T02:55:22.152Z,5
2017-05-21T02:56:22.141Z,5
2017-05-21T02:57:22.722Z,5
2017-05-21T02:58:22.137Z,10
2017-05-21T02:59:22.416Z,10
2017-05-21T03:00:22.409Z,10
2017-05-21T03:01:22.409Z,10
2017-05-21T03:02:22.705Z,10
2017-05-21T03:03:22.384Z,10
2017-05-21T03:04:22.389Z,15
2017-05-21T03:05:22.370Z,15
2017-05-21T03:06:22.065Z,15
2017-05-21T03:07:22.052Z,15
2017-05-21T03:08:22.056Z,15
2017-05-21T03:09:22.040Z,20
2017-05-21T03:10:22.332Z,20
2017-05-21T03:11:22.023Z,20
2017-05-21T03:12:21.410Z,25
2017-05-21T03:13:22.628Z,25
2017-05-21T03:14:22.626Z,30
2017-05-21T03:15:22.298Z,30
2017-05-21T03:16:22.294Z,30
2017-05-21T03:17:22.279Z,35
2017-05-21T03:18:21.971Z,35
2017-05-21T03:19:21.971Z,40
2017-05-21T03:20:21.647Z,40
2017-05-21T03:21:22.248Z,45
2017-05-21T03:22:22.252Z,45
2017-05-21T03:23:21.941Z,50
2017-05-21T03:24:22.545Z,50
2017-05-21T03:25:21.914Z,55
2017-05-21T03:26:21.917Z,55
2017-05-21T03:27:21.908Z,60
2017-05-21T03:28:21.907Z,60
2017-05-21T03:29:22.208Z,65
2017-05-21T03:30:22.191Z,65
2017-05-21T03:31:21.882Z,65
2017-05-21T03:32:21.554Z,65
2017-05-21T03:33:22.156Z,70
2017-05-21T03:34:21.846Z,75
2017-05-21T03:35:22.200Z,75
2017-05-21T03:36:22.137Z,80
2017-05-21T03:37:21.828Z,85
2017-05-21T03:38:21.216Z,90
2017-05-21T03:39:21.819Z,95
2017-05-21T03:40:22.425Z,100
2017-05-21T03:41:21.813Z,105
2017-05-21T03:42:22.097Z,110
2017-05-21T03:43:22.090Z,115
2017-05-21T03:44:22.079Z,120
2017-05-21T03:45:21.783Z,125
2017-05-21T03:46:21.768Z,130
2017-05-21T03:47:22.061Z,130
2017-05-21T03:48:22.056Z,135
2017-05-21T03:49:22.359Z,140
2017-05-21T03:50:22.369Z,145
2017-05-21T03:51:22.356Z,150
2017-05-21T03:52:22.337Z,155
2017-05-21T03:53:21.735Z,155
2017-05-21T03:54:21.711Z,165
2017-05-21T03:55:21.715Z,170
2017-05-21T03:56:22.022Z,170
2017-05-21T03:57:21.704Z,180
2017-05-21T03:58:21.993Z,180
2017-05-21T03:59:21.999Z,190
2017-05-21T04:00:21.384Z,195
2017-05-21T04:01:22.286Z,200
2017-05-21T04:02:22.273Z,205
2017-05-21T04:03:22.267Z,205
2017-05-21T04:04:21.355Z,215
2017-05-21T04:05:22.269Z,220
2017-05-21T04:06:21.664Z,225
2017-05-21T04:07:21.940Z,230
2017-05-21T04:08:21.993Z,235
2017-05-21T04:09:22.263Z,240
2017-05-21T04:10:21.947Z,250
2017-05-21T04:11:21.938Z,255
2017-05-21T04:12:21.939Z,265
2017-05-21T04:13:21.944Z,265
2017-05-21T04:14:21.921Z,275
2017-05-21T04:15:21.333Z,280
2017-05-21T04:16:21.939Z,285
2017-05-21T04:17:21.919Z,290
2017-05-21T04:18:22.216Z,290
2017-05-21T04:19:21.920Z,300
2017-05-21T04:20:21.911Z,305
2017-05-21T04:21:21.917Z,315
2017-05-21T04:22:21.605Z,325
2017-05-21T04:23:21.604Z,325
2017-05-21T04:24:22.221Z,335
2017-05-21T04:25:21.305Z,340
2017-05-21T04:26:21.596Z,340
2017-05-21T04:27:21.910Z,350
2017-05-21T04:28:21.919Z,340
2017-05-21T04:29:21.914Z,350
2017-05-21T04:30:21.917Z,355
2017-05-21T04:31:21.617Z,355
2017-05-21T04:32:21.898Z,360
2017-05-21T04:33:21.914Z,370
2017-05-21T04:34:21.897Z,370
2017-05-21T04:35:21.903Z,380
2017-05-21T04:36:22.225Z,385
2017-05-21T04:37:21.908Z,395
2017-05-21T04:38:21.608Z,400
2017-05-21T04:39:21.312Z,410
2017-05-21T04:40:21.309Z,415
2017-05-21T04:41:22.229Z,425
2017-05-21T04:42:21.603Z,445
2017-05-21T04:43:21.623Z,455
2017-05-21T04:44:21.936Z,470
2017-05-21T04:45:21.922Z,480
2017-05-21T04:46:21.946Z,490
2017-05-21T04:47:21.627Z,495
2017-05-21T04:48:22.258Z,505
2017-05-21T04:49:21.970Z,510
2017-05-21T04:50:21.943Z,515
2017-05-21T04:51:21.352Z,520
2017-05-21T04:52:21.650Z,525
2017-05-21T04:53:21.958Z,535
2017-05-21T04:54:21.363Z,540
2017-05-21T04:55:21.976Z,550
2017-05-21T04:56:21.968Z,565
2017-05-21T04:57:21.984Z,570
2017-05-21T04:58:21.977Z,585
2017-05-21T04:59:22.000Z,595
2017-05-21T05:00:21.991Z,605
2017-05-21T05:01:22.011Z,615
2017-05-21T05:02:21.394Z,620
2017-05-21T05:03:22.320Z,620
2017-05-21T05:04:22.333Z,615
2017-05-21T05:05:22.033Z,615
2017-05-21T05:06:22.338Z,625
2017-05-21T05:07:22.351Z,625
2017-05-21T05:08:22.355Z,630
2017-05-21T05:09:22.370Z,635
2017-05-21T05:10:21.752Z,645
2017-05-21T05:11:22.064Z,650
2017-05-21T05:12:22.383Z,680
2017-05-21T05:13:22.088Z,680
2017-05-21T05:14:21.793Z,690
2017-05-21T05:15:22.095Z,705
2017-05-21T05:16:22.125Z,715
2017-05-21T05:17:22.115Z,715
2017-05-21T05:18:22.144Z,725
2017-05-21T05:19:22.141Z,735
2017-05-21T05:20:22.134Z,755
2017-05-21T05:21:22.142Z,765
2017-05-21T05:22:22.166Z,770
2017-05-21T05:23:21.921Z,785
2017-05-21T05:24:21.864Z,800
2017-05-21T05:25:21.884Z,815
2017-05-21T05:26:21.879Z,845
2017-05-21T05:27:21.888Z,860
2017-05-21T05:28:21.904Z,870
2017-05-21T05:29:22.515Z,885
2017-05-21T05:30:22.237Z,895
2017-05-21T05:31:22.239Z,910
2017-05-21T05:32:22.245Z,920
2017-05-21T05:33:21.957Z,925
2017-05-21T05:34:22.292Z,930
2017-05-21T05:35:21.971Z,930
2017-05-21T05:36:22.592Z,935
2017-05-21T05:37:22.620Z,945
2017-05-21T05:38:21.985Z,960
2017-05-21T05:39:22.016Z,985
2017-05-21T05:40:22.319Z,1010
2017-05-21T05:41:22.037Z,1030
2017-05-21T05:42:22.031Z,1060
2017-05-21T05:43:22.655Z,1075
2017-05-21T05:44:21.760Z,1095
2017-05-21T05:45:22.373Z,1085
2017-05-21T05:46:22.390Z,1075
2017-05-21T05:47:22.384Z,1070
2017-05-21T05:48:22.700Z,1070
2017-05-21T05:49:22.745Z,1065
2017-05-21T05:50:22.416Z,1055
2017-05-21T05:51:22.441Z,1055
2017-05-21T05:52:22.748Z,1055
2017-05-21T05:53:22.438Z,1065
2017-05-21T05:54:22.477Z,1085
2017-05-21T05:55:22.479Z,1095
2017-05-21T05:56:22.491Z,1125
2017-05-21T05:57:22.186Z,1135
2017-05-21T05:58:22.810Z,1150
2017-05-21T05:59:21.908Z,1170
2017-05-21T06:00:22.523Z,1180
2017-05-21T06:01:22.224Z,1195
2017-05-21T06:02:22.862Z,1210
2017-05-21T06:03:22.244Z,1215
2017-05-21T06:04:22.574Z,1230
2017-05-21T06:05:22.582Z,1215
2017-05-21T06:06:22.274Z,1230
2017-05-21T06:07:22.301Z,1220
2017-05-21T06:08:22.922Z,1230
2017-05-21T06:09:22.634Z,1235
2017-05-21T06:10:22.642Z,1250
2017-05-21T06:11:22.933Z,1270
2017-05-21T06:12:22.665Z,1290
2017-05-21T06:13:22.679Z,1325
2017-05-21T06:14:22.680Z,1345
2017-05-21T06:15:22.693Z,1365
2017-05-21T06:16:22.725Z,1390
2017-05-21T06:17:22.725Z,1405
2017-05-21T06:18:22.749Z,1405
2017-05-21T06:19:23.033Z,1425
2017-05-21T06:20:23.048Z,1430
2017-05-21T06:21:23.068Z,1440
2017-05-21T06:22:22.460Z,1460
2017-05-21T06:23:22.809Z,1465
2017-05-21T06:24:22.491Z,1485
2017-05-21T06:25:22.805Z,1510
2017-05-21T06:26:23.148Z,1480
2017-05-21T06:27:22.847Z,1475
2017-05-21T06:28:22.851Z,1465
2017-05-21T06:29:23.176Z,1465
2017-05-21T06:30:22.886Z,1465
2017-05-21T06:31:23.176Z,1465
2017-05-21T06:32:22.606Z,1495
2017-05-21T06:33:22.908Z,1530
2017-05-21T06:34:22.935Z,1575
2017-05-21T06:35:22.932Z,1590
2017-05-21T06:36:22.961Z,1600
2017-05-21T06:37:23.289Z,1630
2017-05-21T06:38:23.288Z,1635
2017-05-21T06:39:23.305Z,1655
2017-05-21T06:40:23.311Z,1665
2017-05-21T06:41:23.329Z,1675
2017-05-21T06:42:23.022Z,1695
2017-05-21T06:43:23.054Z,1680
2017-05-21T06:44:23.378Z,1710
2017-05-21T06:45:22.166Z,1715
2017-05-21T06:46:23.092Z,1740
2017-05-21T06:47:23.415Z,1725
2017-05-21T06:48:23.134Z,1740
2017-05-21T06:49:23.134Z,1755
2017-05-21T06:50:23.139Z,1775
2017-05-21T06:51:23.163Z,1775
2017-05-21T06:52:23.187Z,1805
2017-05-21T06:53:23.195Z,1810
2017-05-21T06:54:23.502Z,1810
2017-05-21T06:55:23.230Z,1815
2017-05-21T06:56:23.541Z,1800
2017-05-21T06:57:23.269Z,1815
2017-05-21T06:58:23.577Z,1830
2017-05-21T06:59:23.307Z,1835
2017-05-21T07:00:23.595Z,1870
2017-05-21T07:01:23.623Z,1875
2017-05-21T07:02:23.332Z,1865
2017-05-21T07:03:23.345Z,1885
2017-05-21T07:04:23.373Z,1840
2017-05-21T07:05:23.683Z,1865
2017-05-21T07:06:23.093Z,1860
2017-05-21T07:07:23.797Z,1835
2017-05-21T07:08:23.125Z,1865
2017-05-21T07:09:23.445Z,1940
2017-05-21T07:10:23.828Z,1970
2017-05-21T07:11:23.764Z,2030
2017-05-21T07:12:22.874Z,2055
2017-05-21T07:13:23.502Z,2080
2017-05-21T07:14:23.527Z,2085
2017-05-21T07:15:23.535Z,2100
2017-05-21T07:16:23.869Z,2070
2017-05-21T07:17:23.556Z,2030
2017-05-21T07:18:23.874Z,1960
2017-05-21T07:19:23.601Z,1945
2017-05-21T07:20:23.312Z,1915
2017-05-21T07:21:23.320Z,1945
2017-05-21T07:22:23.950Z,1990
2017-05-21T07:23:23.684Z,2000
2017-05-21T07:24:23.664Z,1980
2017-05-21T07:25:23.375Z,2000
2017-05-21T07:26:24.011Z,2010
2017-05-21T07:27:24.018Z,2015
2017-05-21T07:28:23.740Z,2030
2017-05-21T07:29:23.740Z,2040
2017-05-21T07:30:23.761Z,2065
2017-05-21T07:31:23.787Z,2095
2017-05-21T07:32:23.808Z,2120
2017-05-21T07:33:23.804Z,2125
2017-05-21T07:34:24.125Z,2160
2017-05-21T07:35:24.127Z,2155
2017-05-21T07:36:24.152Z,2080
2017-05-21T07:37:24.161Z,1940
2017-05-21T07:38:24.173Z,1835
2017-05-21T07:39:24.212Z,1845
2017-05-21T07:40:24.209Z,1860
2017-05-21T07:41:24.228Z,1880
2017-05-21T07:42:24.238Z,1905
2017-05-21T07:43:23.974Z,1935
2017-05-21T07:44:23.965Z,1970
2017-05-21T07:45:24.285Z,2005
2017-05-21T07:46:24.306Z,2060
2017-05-21T07:47:23.716Z,2105
2017-05-21T07:48:24.349Z,2160
2017-05-21T07:49:24.362Z,2230
2017-05-21T07:50:24.364Z,2335
2017-05-21T07:51:23.778Z,2125
2017-05-21T07:52:24.387Z,1575
2017-05-21T07:53:24.405Z,2265
2017-05-21T07:54:24.422Z,2190
2017-05-21T07:55:24.447Z,2155
2017-05-21T07:56:24.455Z,2145
2017-05-21T07:57:24.169Z,2165
2017-05-21T07:58:24.497Z,2390
2017-05-21T07:59:24.488Z,2825
2017-05-21T08:00:24.509Z,2965
2017-05-21T08:01:23.917Z,3020
2017-05-21T08:02:24.238Z,3070
2017-05-21T08:03:23.965Z,3075
2017-05-21T08:04:24.589Z,3030
2017-05-21T08:05:24.289Z,2945
2017-05-21T08:06:24.019Z,3060
2017-05-21T08:07:24.327Z,3030
2017-05-21T08:08:24.620Z,2835
2017-05-21T08:09:24.052Z,3140
2017-05-21T08:10:24.371Z,3120
2017-05-21T08:11:24.369Z,3075
2017-05-21T08:12:24.696Z,3055
2017-05-21T08:13:24.417Z,2670
2017-05-21T08:14:24.435Z,2130
2017-05-21T08:15:24.125Z,1995
2017-05-21T08:16:24.776Z,1915
2017-05-21T08:17:24.465Z,1870
2017-05-21T08:18:24.796Z,1875
2017-05-21T08:19:24.512Z,1910
2017-05-21T08:20:24.518Z,1935
2017-05-21T08:21:24.528Z,1975
2017-05-21T08:22:24.521Z,2015
2017-05-21T08:23:24.560Z,2055
2017-05-21T08:24:24.578Z,2075
2017-05-21T08:25:24.879Z,2050
2017-05-21T08:26:24.595Z,2095
2017-05-21T08:27:24.615Z,2095
2017-05-21T08:28:24.622Z,2115
2017-05-21T08:29:24.644Z,2090
2017-05-21T08:30:24.649Z,2140
2017-05-21T08:31:24.363Z,2115
2017-05-21T08:32:24.983Z,2070
2017-05-21T08:33:24.393Z,1790
2017-05-21T08:34:25.012Z,1810
2017-05-21T08:35:25.017Z,1665
2017-05-21T08:36:25.023Z,1240
2017-05-21T08:37:25.038Z,1130
2017-05-21T08:38:24.452Z,1155
2017-05-21T08:39:24.789Z,1240
2017-05-21T08:40:25.081Z,1355
2017-05-21T08:41:25.081Z,1350
2017-05-21T08:42:24.805Z,1705
2017-05-21T08:43:25.135Z,1930
2017-05-21T08:44:25.123Z,2180
2017-05-21T08:45:24.846Z,2075
2017-05-21T08:46:25.149Z,1390
2017-05-21T08:47:25.157Z,630
2017-05-21T08:48:25.168Z,475
2017-05-21T08:49:25.186Z,470
2017-05-21T08:50:25.185Z,470
2017-05-21T08:51:25.195Z,470
2017-05-21T08:52:25.209Z,470
2017-05-21T08:53:25.221Z,470
2017-05-21T08:54:25.242Z,470
2017-05-21T08:55:25.237Z,440
2017-05-21T08:56:25.250Z,445
2017-05-21T08:57:25.248Z,435
2017-05-21T08:58:25.270Z,425
2017-05-21T08:59:25.283Z,430
2017-05-21T09:00:25.289Z,425
2017-05-21T09:01:24.968Z,435
2017-05-21T09:02:25.303Z,450
2017-05-21T09:03:25.293Z,465
2017-05-21T09:04:25.309Z,480
2017-05-21T09:05:25.323Z,475
2017-05-21T09:06:25.323Z,450
2017-05-21T09:07:25.328Z,440
2017-05-21T09:08:25.333Z,420
2017-05-21T09:09:25.339Z,405
2017-05-21T09:10:25.335Z,405
2017-05-21T09:11:25.327Z,395
2017-05-21T09:12:25.329Z,390
2017-05-21T09:13:25.347Z,395
2017-05-21T09:14:25.364Z,400
2017-05-21T09:15:25.064Z,405
2017-05-21T09:16:25.364Z,400
2017-05-21T09:17:24.803Z,405
2017-05-21T09:18:25.364Z,395
2017-05-21T09:19:25.056Z,410
2017-05-21T09:20:25.370Z,430
2017-05-21T09:21:24.831Z,435
2017-05-21T09:22:25.377Z,430
2017-05-21T09:23:25.380Z,415
2017-05-21T09:24:24.772Z,410
2017-05-21T09:25:25.393Z,405
2017-05-21T09:26:25.073Z,395
2017-05-21T09:27:25.088Z,390
2017-05-21T09:28:25.489Z,390
2017-05-21T09:29:25.411Z,390
2017-05-21T09:30:25.408Z,390
2017-05-21T09:31:25.101Z,385
2017-05-21T09:32:25.082Z,375
2017-05-21T09:33:25.100Z,370
2017-05-21T09:34:25.412Z,370
2017-05-21T09:35:25.389Z,360
2017-05-21T09:36:25.099Z,360
2017-05-21T09:37:24.781Z,360
2017-05-21T09:38:25.412Z,365
2017-05-21T09:39:25.099Z,360
2017-05-21T09:40:25.163Z,365
2017-05-21T09:41:24.783Z,370
2017-05-21T09:42:24.800Z,370
2017-05-21T09:43:25.399Z,370
2017-05-21T09:44:24.805Z,370
2017-05-21T09:45:24.813Z,365
2017-05-21T09:46:25.089Z,360
2017-05-21T09:47:25.416Z,365
2017-05-21T09:48:25.113Z,370
2017-05-21T09:49:25.102Z,370
2017-05-21T09:50:25.393Z,375
2017-05-21T09:51:25.408Z,380
2017-05-21T09:52:25.119Z,390
2017-05-21T09:53:25.114Z,405
2017-05-21T09:54:25.421Z,410
2017-05-21T09:55:25.428Z,410
2017-05-21T09:56:25.430Z,405
2017-05-21T09:57:25.114Z,395
2017-05-21T09:58:25.120Z,400
2017-05-21T09:59:25.421Z,400
2017-05-21T10:00:24.818Z,405
2017-05-21T10:01:25.106Z,405
2017-05-21T10:02:25.134Z,405
2017-05-21T10:03:25.114Z,410
2017-05-21T10:04:25.421Z,410
2017-05-21T10:05:25.126Z,420
2017-05-21T10:06:25.440Z,430
2017-05-21T10:07:25.452Z,440
2017-05-21T10:08:25.119Z,450
2017-05-21T10:09:25.119Z,450
2017-05-21T10:10:25.132Z,435
2017-05-21T10:11:25.127Z,430
2017-05-21T10:12:25.420Z,430
2017-05-21T10:13:25.451Z,410
2017-05-21T10:14:25.440Z,385
2017-05-21T10:15:25.424Z,375
2017-05-21T10:16:25.435Z,365
2017-05-21T10:17:25.125Z,360
2017-05-21T10:18:25.449Z,355
2017-05-21T10:19:25.451Z,355
2017-05-21T10:20:25.443Z,345
2017-05-21T10:21:25.444Z,345
2017-05-21T10:22:25.156Z,340
2017-05-21T10:23:25.454Z,340
2017-05-21T10:24:25.165Z,345
2017-05-21T10:25:25.440Z,345
2017-05-21T10:26:25.147Z,350
2017-05-21T10:27:25.457Z,350
2017-05-21T10:28:25.150Z,350
2017-05-21T10:29:25.464Z,345
2017-05-21T10:30:25.452Z,340
2017-05-21T10:31:25.145Z,335
2017-05-21T10:32:25.468Z,330
2017-05-21T10:33:25.518Z,325
2017-05-21T10:34:24.855Z,320
2017-05-21T10:35:25.154Z,325
2017-05-21T10:36:25.453Z,330
2017-05-21T10:37:25.458Z,330
2017-05-21T10:38:25.161Z,330
2017-05-21T10:39:25.150Z,335
2017-05-21T10:40:25.153Z,340
2017-05-21T10:41:25.163Z,345
2017-05-21T10:42:24.854Z,350
2017-05-21T10:43:25.160Z,360
2017-05-21T10:44:25.486Z,365
2017-05-21T10:45:25.169Z,375
2017-05-21T10:46:25.159Z,375
2017-05-21T10:47:25.162Z,370
2017-05-21T10:48:25.468Z,355
2017-05-21T10:49:25.830Z,365
2017-05-21T10:50:25.478Z,360
2017-05-21T10:51:25.469Z,360
2017-05-21T10:52:25.460Z,360
2017-05-21T10:53:25.164Z,360
2017-05-21T10:54:25.502Z,360
2017-05-21T10:55:25.174Z,360
2017-05-21T10:56:25.474Z,360
2017-05-21T10:57:25.167Z,365
2017-05-21T10:58:25.181Z,380
2017-05-21T10:59:25.493Z,415
2017-05-21T11:00:25.476Z,435
2017-05-21T11:01:25.170Z,450
2017-05-21T11:02:25.178Z,455
2017-05-21T11:03:25.465Z,465
2017-05-21T11:04:25.777Z,490
2017-05-21T11:05:25.185Z,505
2017-05-21T11:06:25.484Z,510
2017-05-21T11:07:25.472Z,490
2017-05-21T11:08:25.480Z,455
2017-05-21T11:09:25.494Z,415
2017-05-21T11:10:25.469Z,390
2017-05-21T11:11:25.495Z,375
2017-05-21T11:12:25.492Z,370
2017-05-21T11:13:25.499Z,360
2017-05-21T11:14:25.492Z,355
2017-05-21T11:15:25.490Z,345
2017-05-21T11:16:24.888Z,335
2017-05-21T11:17:25.510Z,325
2017-05-21T11:18:24.897Z,315
2017-05-21T11:19:25.559Z,315
2017-05-21T11:20:25.504Z,310
2017-05-21T11:21:25.193Z,315
2017-05-21T11:22:25.497Z,315
2017-05-21T11:23:25.497Z,320
2017-05-21T11:24:25.520Z,320
2017-05-21T11:25:25.206Z,315
2017-05-21T11:26:25.218Z,315
2017-05-21T11:27:25.500Z,315
2017-05-21T11:28:25.236Z,305
2017-05-21T11:29:25.525Z,295
2017-05-21T11:30:25.508Z,300
2017-05-21T11:31:25.227Z,310
2017-05-21T11:32:25.526Z,315
2017-05-21T11:33:25.232Z,335
2017-05-21T11:34:25.218Z,355
2017-05-21T11:35:25.518Z,370
2017-05-21T11:36:25.536Z,380
2017-05-21T11:37:25.530Z,390
2017-05-21T11:38:25.526Z,400
2017-05-21T11:39:25.231Z,420
2017-05-21T11:40:25.543Z,440
2017-05-21T11:41:25.238Z,460
2017-05-21T11:42:25.228Z,470
2017-05-21T11:43:25.237Z,490
2017-05-21T11:44:25.533Z,505
2017-05-21T11:45:25.239Z,540
2017-05-21T11:46:25.626Z,530
2017-05-21T11:47:25.257Z,525
2017-05-21T11:48:25.563Z,485
2017-05-21T11:49:24.943Z,460
2017-05-21T11:50:25.541Z,425
2017-05-21T11:51:25.239Z,380
2017-05-21T11:52:25.563Z,355
2017-05-21T11:53:25.572Z,345
2017-05-21T11:54:25.252Z,345
2017-05-21T11:55:25.562Z,355
2017-05-21T11:56:25.262Z,380
2017-05-21T11:57:25.583Z,420
2017-05-21T11:58:25.578Z,465
2017-05-21T11:59:25.563Z,510
2017-05-21T12:00:25.258Z,545
2017-05-21T12:01:24.965Z,570
2017-05-21T12:02:25.655Z,585
2017-05-21T12:03:25.590Z,580
2017-05-21T12:04:24.982Z,560
2017-05-21T12:05:24.980Z,555
2017-05-21T12:06:25.294Z,540
2017-05-21T12:07:24.977Z,525
2017-05-21T12:08:25.294Z,495
2017-05-21T12:09:25.623Z,455
2017-05-21T12:10:25.608Z,390
2017-05-21T12:11:25.593Z,355
2017-05-21T12:12:25.300Z,345
2017-05-21T12:13:25.325Z,345
2017-05-21T12:14:25.634Z,340
2017-05-21T12:15:25.606Z,340
2017-05-21T12:16:25.614Z,345
2017-05-21T12:17:25.624Z,350
2017-05-21T12:18:25.627Z,355
2017-05-21T12:19:25.631Z,355
2017-05-21T12:20:25.632Z,365
2017-05-21T12:21:25.638Z,375
2017-05-21T12:22:25.346Z,390
2017-05-21T12:23:25.650Z,420
2017-05-21T12:24:25.651Z,450
2017-05-21T12:25:25.648Z,470
2017-05-21T12:26:25.327Z,475
2017-05-21T12:27:25.661Z,480
2017-05-21T12:28:25.870Z,505
2017-05-21T12:29:25.660Z,555
2017-05-21T12:30:25.647Z,590
2017-05-21T12:31:25.671Z,610
2017-05-21T12:32:25.678Z,615
2017-05-21T12:33:25.716Z,615
2017-05-21T12:34:25.678Z,600
2017-05-21T12:35:25.693Z,580
2017-05-21T12:36:25.684Z,565
2017-05-21T12:37:25.677Z,545
2017-05-21T12:38:25.683Z,525
2017-05-21T12:39:25.682Z,495
2017-05-21T12:40:25.691Z,465
2017-05-21T12:41:25.393Z,445
2017-05-21T12:42:25.688Z,430
2017-05-21T12:43:25.390Z,445
2017-05-21T12:44:25.704Z,455
2017-05-21T12:45:25.718Z,490
2017-05-21T12:46:25.420Z,510
2017-05-21T12:47:25.716Z,525
2017-05-21T12:48:25.741Z,510
2017-05-21T12:49:25.729Z,500
2017-05-21T12:50:25.432Z,505
2017-05-21T12:51:25.460Z,515
2017-05-21T12:52:25.749Z,530
2017-05-21T12:53:25.731Z,540
2017-05-21T12:54:25.444Z,555
2017-05-21T12:55:25.754Z,585
2017-05-21T12:56:25.759Z,595
2017-05-21T12:57:25.465Z,605
2017-05-21T12:58:25.460Z,600
2017-05-21T12:59:25.768Z,585
2017-05-21T13:00:25.467Z,555
2017-05-21T13:01:25.161Z,525
2017-05-21T13:02:25.785Z,490
2017-05-21T13:03:25.804Z,470
2017-05-21T13:04:25.854Z,460
2017-05-21T13:05:25.793Z,455
2017-05-21T13:06:25.799Z,450
2017-05-21T13:07:25.502Z,445
2017-05-21T13:08:25.209Z,455
2017-05-21T13:09:25.817Z,455
2017-05-21T13:10:25.512Z,440
2017-05-21T13:11:25.827Z,425
2017-05-21T13:12:25.517Z,405
2017-05-21T13:13:25.523Z,395
2017-05-21T13:14:25.538Z,390
2017-05-21T13:15:25.830Z,390
2017-05-21T13:16:25.837Z,380
2017-05-21T13:17:25.844Z,375
2017-05-21T13:18:25.876Z,355
2017-05-21T13:19:25.845Z,335
2017-05-21T13:20:25.861Z,315
2017-05-21T13:21:25.863Z,305
2017-05-21T13:22:25.560Z,305
2017-05-21T13:23:25.868Z,315
2017-05-21T13:24:25.577Z,325
2017-05-21T13:25:25.885Z,340
2017-05-21T13:26:25.573Z,355
2017-05-21T13:27:25.897Z,365
2017-05-21T13:28:25.877Z,375
2017-05-21T13:29:25.594Z,395
2017-05-21T13:30:25.890Z,410
2017-05-21T13:31:25.588Z,420
2017-05-21T13:32:25.890Z,445
2017-05-21T13:33:25.912Z,470
2017-05-21T13:34:25.923Z,485
2017-05-21T13:35:25.882Z,495
2017-05-21T13:36:25.891Z,495
2017-05-21T13:37:25.918Z,480
2017-05-21T13:38:25.630Z,460
2017-05-21T13:39:25.919Z,420
2017-05-21T13:40:25.920Z,395
2017-05-21T13:41:25.936Z,380
2017-05-21T13:42:25.930Z,375
2017-05-21T13:43:25.642Z,360
2017-05-21T13:44:25.620Z,345
2017-05-21T13:45:25.919Z,345
2017-05-21T13:46:25.943Z,345
2017-05-21T13:47:25.629Z,345
2017-05-21T13:48:25.944Z,335
2017-05-21T13:49:25.347Z,325
2017-05-21T13:50:25.932Z,315
2017-05-21T13:51:25.951Z,305
2017-05-21T13:52:25.643Z,300
2017-05-21T13:53:25.935Z,295